Nearby METAR Reports - 80 Mile Radius
Meteorological Terminal Air Report (METAR)


KBWI - Balto/Wash Intl Airport, Maryland
Distance from station: S 5mi, 8km
Updated: Thu, 04-Mar-2021 9:54pm EST
Few Clouds
Few Clouds
 Wind from NNW
Wind: NNW 13 mph , 20 km/h, Gust: 25 mph , 41 km/h
Temperature: 36°F , 2°C
Wind Chill: 27°F , -3°C
Dew Point: 18°F , -8°C
Humidity: 48%
Barometer: 30.01 inHg , 1016.3 hPa
Clouds: Few Clouds
Visibility: 10 miles , 16 km
Cloud details: Few Clouds 5000 ft
2021/03/05 02:54 KBWI 050254Z 33011G22KT 10SM FEW050 02/M08 A3001 RMK AO2 SLP161 T00221083 53014 $
KFME - Fort Meade/Tipton AAF, Maryland
Distance from station: SSW 11mi, 18km
Updated: Thu, 04-Mar-2021 9:55pm EST
Clear
Clear
 Wind from NNW
Wind: NNW 10 mph , 17 km/h, Gust: 25 mph , 41 km/h
Temperature: 34°F , 1°C
Wind Chill: 26°F , -3°C
Dew Point: 21°F , -6°C
Humidity: 60%
Barometer: 30.04 inHg , 1017.3 hPa
Clouds: Clear
Visibility: 10 miles , 16 km
2021/03/05 02:55 KFME 050255Z AUTO 33009G22KT 300V010 10SM CLR 01/M06 A3004 RMK AO1
KMTN - Balto/Martin State Airport, Maryland
Distance from station: ENE 16mi, 26km
Updated: Thu, 04-Mar-2021 9:54pm EST
Few Clouds
Few Clouds
 Wind from NW
Wind: NW 16 mph , 26 km/h, Gust: 29 mph , 46 km/h
Temperature: 36°F , 2°C
Wind Chill: 26°F , -3°C
Dew Point: 18°F , -8°C
Humidity: 48%
Barometer: 30.02 inHg , 1016.6 hPa
Clouds: Few Clouds
Visibility: 10 miles , 16 km
Cloud details: Few Clouds 6000 ft
2021/03/05 02:54 KMTN 050254Z 31014G25KT 10SM FEW060 02/M08 A3002
 
KCGS - College Park Airport, Maryland
Distance from station: SSW 21mi, 34km
Updated: Thu, 04-Mar-2021 9:55pm EST
Partly Cloudy
Partly Cloudy
 Wind from WNW
Wind: WNW 16 mph , 26 km/h, Gust: 22 mph , 35 km/h
Temperature: 36°F , 2°C
Wind Chill: 26°F , -3°C
Dew Point: 14°F , -10°C
Humidity: 41%
Barometer: 30.02 inHg , 1016.6 hPa
Clouds: Partly Cloudy
Visibility: 10 miles , 16 km
Cloud details: Partly Cloudy 5000 ft
2021/03/05 02:55 KCGS 050255Z AUTO 30014G19KT 10SM SCT050 02/M10 A3002 RMK AO1 T00231100
KNAK - Annapolis/Naval Academy, Maryland
Distance from station: SE 21mi, 34km
Updated: Thu, 04-Mar-2021 9:54pm EST
Mostly Cloudy
Mostly Cloudy
 Wind from NNW
Wind: NNW 22 mph , 35 km/h, Gust: 33 mph , 54 km/h
Temperature: 39°F , 4°C
Wind Chill: 29°F , -2°C
Dew Point: 21°F , -6°C
Humidity: 48%
Barometer: 30.00 inHg , 1015.9 hPa
Clouds: Mostly Cloudy
Visibility: 10 miles , 16 km
Cloud details: Mostly Cloudy 5500 ft
2021/03/05 02:54 KNAK 050254Z AUTO 33019G29KT 10SM BKN055 04/M06 A3000 RMK AO2 PK WND 34029/0252 SLP161 T00391061 51014
KGAI - Gaithersburg/Montgomery Co Airpark, Maryland
Distance from station: W 26mi, 41km
Updated: Thu, 04-Mar-2021 9:56pm EST
Clear
Clear
 Wind from NNW
Wind: NNW 10 mph , 17 km/h, Gust: 18 mph , 30 km/h
Temperature: 34°F , 1°C
Wind Chill: 26°F , -3°C
Dew Point: 18°F , -8°C
Humidity: 51%
Barometer: 30.02 inHg , 1016.6 hPa
Clouds: Clear
Visibility: 10 miles , 16 km
2021/03/05 02:56 KGAI 050256Z AUTO 33009G16KT 300V010 10SM CLR 01/M08 A3002 RMK AO2 SLP183 T00061083 51010 FZRANO
 
KW29 - Stevensville/Bay Bridge Airport, Maryland
Distance from station: SE 26mi, 42km
Updated: Thu, 04-Mar-2021 9:55pm EST
Overcast
Overcast
 Wind from NNW
Wind: NNW 21 mph , 33 km/h, Gust: 31 mph , 50 km/h
Temperature: 37°F , 3°C
Wind Chill: 26°F , -3°C
Dew Point: 21°F , -6°C
Humidity: 52%
Barometer: 30.00 inHg , 1015.9 hPa
Clouds: Overcast
Visibility: 10 miles , 16 km
Cloud details: Mostly Cloudy 5000 ft
Overcast 5500 ft
2021/03/05 02:55 KW29 050255Z AUTO 33018G27KT 10SM BKN050 OVC055 03/M06 A3000 RMK AO2 P0167
KDMW - Carroll Co Regional Airport, Maryland
Distance from station: NNW 30mi, 48km
Updated: Thu, 04-Mar-2021 9:55pm EST
Clear
Clear
 Wind from NW
Wind: NW 15 mph , 24 km/h, Gust: 22 mph , 35 km/h
Temperature: 32°F , 0°C
Wind Chill: 22°F , -6°C
Dew Point: 16°F , -9°C
Humidity: 51%
Barometer: 29.99 inHg , 1015.6 hPa
Clouds: Clear
Visibility: 10 miles , 16 km
2021/03/05 02:55 KDMW 050255Z AUTO 32013G19KT 10SM CLR 00/M09 A2999 RMK AO2
KADW - Andrews AFB, Maryland
Distance from station: SSW 30mi, 49km
Updated: Thu, 04-Mar-2021 9:56pm EST
Mostly Cloudy
Mostly Cloudy
 Wind from NNW
Wind: NNW 17 mph , 28 km/h, Gust: 24 mph , 39 km/h
Temperature: 36°F , 2°C
Wind Chill: 26°F , -3°C
Dew Point: 18°F , -8°C
Humidity: 48%
Barometer: 30.00 inHg , 1015.9 hPa
Clouds: Mostly Cloudy
Visibility: 10 miles , 16 km
Cloud details: Mostly Cloudy 5000 ft
2021/03/05 02:56 KADW 050256Z AUTO 33015G21KT 10SM BKN050 02/M08 A3000 RMK AO2 PK WND 32029/30 SLP167 T00241081 $
 
KAPG - Aberdeen/Phillip AAF, Maryland
Distance from station: ENE 32mi, 52km
Updated: Thu, 04-Mar-2021 9:58pm EST
Clear
Clear
 Wind from NW
Wind: NW 8 mph , 13 km/h, Gust: 17 mph , 28 km/h
Temperature: 34°F , 1°C
Wind Chill: 27°F , -3°C
Dew Point: 14°F , -10°C
Humidity: 44%
Barometer: 30.00 inHg , 1015.9 hPa
Clouds: Clear
Visibility: 10 miles , 16 km
2021/03/05 02:58 KAPG 050258Z AUTO 32007G15KT 10SM CLR 01/M10 A3000 RMK AO2 SLP162 T00111097 PNO $
KDCA - Washington/Natl Airport, Washington D.C.
Distance from station: SW 32mi, 52km
Updated: Thu, 04-Mar-2021 9:52pm EST
Mostly Cloudy
Mostly Cloudy
 Wind from NW
Wind: NW 13 mph , 20 km/h, Gust: 26 mph , 43 km/h
Temperature: 37°F , 3°C
Wind Chill: 29°F , -2°C
Dew Point: 18°F , -8°C
Humidity: 45%
Barometer: 30.04 inHg , 1017.3 hPa
Clouds: Mostly Cloudy
Visibility: 10 miles , 16 km
Cloud details: Mostly Cloudy 5000 ft
2021/03/05 02:52 KDCA 050252Z 32011G23KT 10SM BKN050 03/M08 A3004 RMK AO2 PK WND 34031/0217 SLP170 T00331078 51015
KFDK - Frederick Municipal Airport, Maryland
Distance from station: WNW 38mi, 61km
Updated: Thu, 04-Mar-2021 9:55pm EST
Clear
Clear
 Wind from NW
Wind: NW 16 mph , 26 km/h, Gust: 24 mph , 39 km/h
Temperature: 34°F , 1°C
Wind Chill: 24°F , -4°C
Dew Point: 18°F , -8°C
Humidity: 51%
Barometer: 30.05 inHg , 1017.6 hPa
Clouds: Clear
Visibility: 10 miles , 16 km
2021/03/05 02:55 KFDK 050255Z AUTO 32014G21KT 10SM CLR 01/M08 A3005 RMK AO2
 
KDAA - Fort Belvoir/Davison AAF, Virginia
Distance from station: SW 44mi, 71km
Updated: Thu, 04-Mar-2021 9:56pm EST
Clear
Clear
 Wind from NW
Wind: NW 10 mph , 17 km/h, Gust: 24 mph , 39 km/h
Temperature: 37°F , 3°C
Wind Chill: 30°F , -1°C
Dew Point: 16°F , -9°C
Humidity: 41%
Barometer: 30.03 inHg , 1016.9 hPa
Clouds: Clear
Visibility: 10 miles , 16 km
2021/03/05 02:56 KDAA 050256Z AUTO 32009G21KT 10SM CLR 03/M09 A3003 RMK AO2 PK WND 31026/00 SLP172 T00301090 52016 $
KESN - Easton/Newnam Field Airport, Maryland
Distance from station: SE 45mi, 73km
Updated: Thu, 04-Mar-2021 9:50pm EST
Mostly Cloudy
Mostly Cloudy
 Wind from WNW
Wind: WNW 16 mph , 26 km/h, Gust: 25 mph , 41 km/h
Temperature: 39°F , 4°C
Wind Chill: 30°F , -1°C
Dew Point: 21°F , -6°C
Humidity: 48%
Barometer: 30.01 inHg , 1016.3 hPa
Clouds: Mostly Cloudy
Visibility: 10 miles , 16 km
Cloud details: Mostly Cloudy 6000 ft
2021/03/05 02:50 KESN 050250Z 29014G22KT 10SM BKN060 04/M06 A3001
KIAD - Wash DC/Dulles Intl, Virginia
Distance from station: WSW 45mi, 73km
Updated: Thu, 04-Mar-2021 9:52pm EST
Few Clouds
Few Clouds
 Wind from NNW
Wind: NNW 17 mph , 28 km/h, Gust: 26 mph , 43 km/h
Temperature: 36°F , 2°C
Wind Chill: 26°F , -3°C
Dew Point: 18°F , -8°C
Humidity: 48%
Barometer: 30.03 inHg , 1016.9 hPa
Clouds: Few Clouds
Visibility: 10 miles , 16 km
Cloud details: Few Clouds 5000 ft
2021/03/05 02:52 KIAD 050252Z 33015G23KT 10SM FEW050 02/M08 A3003 RMK AO2 PK WND 34029/0153 SLP171 T00171083 53013
 
KJYO - Leesburg/Godfrey Field, Virginia
Distance from station: WSW 48mi, 77km
Updated: Thu, 04-Mar-2021 9:55pm EST
Clear
Clear
 Wind from NNW
Wind: NNW 16 mph , 26 km/h, Gust: 23 mph , 37 km/h
Temperature: 34°F , 1°C
Wind Chill: 24°F , -4°C
Dew Point: 19°F , -7°C
Humidity: 56%
Barometer: 30.05 inHg , 1017.6 hPa
Clouds: Clear
Visibility: 10 miles , 16 km
2021/03/05 02:55 KJYO 050255Z AUTO 33014G20KT 10SM CLR 01/M07 A3005 RMK AO2
KTHV - York Airport, Pennsylvania
Distance from station: NNW 48mi, 77km
Updated: Thu, 04-Mar-2021 9:53pm EST
Clear
Clear
 Wind from NW
Wind: NW 12 mph , 19 km/h
Temperature: 30°F , -1°C
Wind Chill: 20°F , -7°C
Dew Point: 12°F , -11°C
Humidity: 47%
Barometer: 30.01 inHg , 1016.3 hPa
Clouds: Clear
Visibility: 10 miles , 16 km
2021/03/05 02:53 KTHV 050253Z AUTO 31010KT 10SM CLR M01/M11 A3001 RMK AO2 SLP169 60000 T10111111 50014
KRSP - Naval Support Fac Thurmont, Maryland, USA
Distance from station: NW 50mi, 81km
Updated: Thu, 04-Mar-2021 9:54pm EST
Clear
Clear
 Wind from NW
Wind: NW 18 mph , 30 km/h, Gust: 39 mph , 63 km/h
Temperature: 25°F , -4°C
Wind Chill: 11°F , -12°C
Dew Point: 12°F , -11°C
Humidity: 59%
Clouds: Clear
Visibility: 10 miles , 16 km
2021/03/05 02:54 KRSP 050254Z AUTO 31016G34KT 10SM CLR M04/M11 RMK AO2 PK WND 33041/0233 SLPNO 6//// T10441111 TSNO PNO $
 
KRYT - Fountain Dale Airport, Pennsylvania
Distance from station: NW 52mi, 84km
Updated: Mon, 13-Nov-2017 7:53am EST
NOT Current
Mist, Overcast
Mist, Overcast
 Wind from calm
Wind: Calm
Temperature: 37°F , 3°C
Dew Point: 34°F , 1°C
Humidity: 87%
Barometer: 30.31 inHg , 1026.4 hPa
Summary: Mist
Clouds: Overcast
Visibility: 5 miles , 8 km
Cloud details: Overcast 700 ft
2017/11/13 12:53 KRYT 131253Z AUTO 00000KT 5SM BR OVC007 03/01 A3031 RMK AO2 SLP275 T00280011 TSNO $
KHEF - Manassas Municipal Airport, Virginia
Distance from station: SW 57mi, 91km
Updated: Thu, 04-Mar-2021 9:56pm EST
Partly Cloudy
Partly Cloudy
 Wind from NNW
Wind: NNW 15 mph , 24 km/h
Temperature: 36°F , 2°C
Wind Chill: 27°F , -3°C
Dew Point: 19°F , -7°C
Humidity: 52%
Barometer: 30.05 inHg , 1017.6 hPa
Clouds: Partly Cloudy
Visibility: 10 miles , 16 km
Cloud details: Partly Cloudy 5000 ft
2021/03/05 02:56 KHEF 050256Z 34013KT 10SM SCT050 02/M07 A3005 RMK AO2 SLP182 T00221072 51016 FZRANO
KNYG - Quantico Marine Corps Air Fac, Virginia
Distance from station: SSW 60mi, 96km
Updated: Thu, 04-Mar-2021 9:56pm EST
Clear
Clear
 Wind from NNW
Wind: NNW 13 mph , 20 km/h, Gust: 26 mph , 43 km/h
Temperature: 39°F , 4°C
Wind Chill: 31°F , -1°C
Dew Point: 19°F , -7°C
Humidity: 45%
Barometer: 30.04 inHg , 1017.3 hPa
Clouds: Clear
Visibility: 10 miles , 16 km
2021/03/05 02:56 KNYG 050256Z AUTO 33011G23KT 10SM CLR 04/M07 A3004 RMK AO2 PK WND 33026/0226 SLP174 T00441072 53018
 
KCGE - Cambridge-Dorchester Reg Airport, Maryland
Distance from station: SE 60mi, 97km
Updated: Thu, 04-Mar-2021 9:55pm EST
Mostly Cloudy
Mostly Cloudy
 Wind from NW
Wind: NW 20 mph , 31 km/h, Gust: 29 mph , 46 km/h
Temperature: 39°F , 4°C
Wind Chill: 29°F , -2°C
Dew Point: 21°F , -6°C
Humidity: 48%
Barometer: 29.97 inHg , 1014.9 hPa
Clouds: Mostly Cloudy
Visibility: 10 miles , 16 km
Cloud details: Few Clouds 1600 ft
Few Clouds 2400 ft
Mostly Cloudy 5000 ft
2021/03/05 02:55 KCGE 050255Z AUTO 32017G25KT 10SM FEW016 FEW024 BKN050 04/M06 A2997 RMK A01
K2W6 - St Marys Co Reg Airport, Maryland
Distance from station: SSE 64mi, 103km
Updated: Thu, 04-Mar-2021 9:55pm EST
Clear
Clear
 Wind from NNW
Wind: NNW 7 mph , 11 km/h
Temperature: 37°F , 3°C
Wind Chill: 32°F , 0°C
Dew Point: 19°F , -7°C
Humidity: 48%
Barometer: 30.01 inHg , 1016.3 hPa
Clouds: Clear
Visibility: 10 miles , 16 km
2021/03/05 02:55 K2W6 050255Z AUTO 33006KT 10SM CLR 03/M07 A3001 RMK AO1
KHGR - Hagerstown Reg Airport, Maryland
Distance from station: WNW 64mi, 103km
Updated: Thu, 04-Mar-2021 9:53pm EST
Clear
Clear
 Wind from NW
Wind: NW 17 mph , 28 km/h
Temperature: 30°F , -1°C
Wind Chill: 18°F , -8°C
Dew Point: 16°F , -9°C
Humidity: 55%
Barometer: 30.04 inHg , 1017.3 hPa
Clouds: Clear
Visibility: 10 miles , 16 km
2021/03/05 02:53 KHGR 050253Z 32015KT 10SM CLR M01/M09 A3004 RMK AO2 PK WND 33028/0156 SLP186 T10111094 51009 $
 
KLNS - Lancaster Airport, Pennsylvania
Distance from station: NNE 64mi, 104km
Updated: Thu, 04-Mar-2021 9:53pm EST
Clear
Clear
 Wind from NW
Wind: NW 18 mph , 30 km/h, Gust: 29 mph , 46 km/h
Temperature: 32°F , 0°C
Wind Chill: 21°F , -6°C
Dew Point: 12°F , -11°C
Humidity: 44%
Barometer: 29.98 inHg , 1015.2 hPa
Clouds: Clear
Visibility: 10 miles , 16 km
2021/03/05 02:53 KLNS 050253Z 31016G25KT 10SM CLR 00/M11 A2998 RMK AO2 SLP155 T00001111 51011
KILG - New Castle Airport, Wilmington, Delaware
Distance from station: ENE 66mi, 106km
Updated: Thu, 04-Mar-2021 9:51pm EST
Clear
Clear
 Wind from NW
Wind: NW 13 mph , 20 km/h
Temperature: 34°F , 1°C
Wind Chill: 25°F , -4°C
Dew Point: 18°F , -8°C
Humidity: 51%
Barometer: 29.97 inHg , 1014.9 hPa
Clouds: Clear
Visibility: 10 miles , 16 km
2021/03/05 02:51 KILG 050251Z 32011KT 10SM CLR 01/M08 A2997 RMK AO2 PK WND 33026/0157 SLP150 T00061083 51013
KDOV - Dover Air Force Base, Delaware
Distance from station: E 66mi, 107km
Updated: Thu, 04-Mar-2021 9:56pm EST
Overcast
Overcast
 Wind from NW
Wind: NW 15 mph , 24 km/h
Temperature: 37°F , 3°C
Wind Chill: 28°F , -2°C
Dew Point: 25°F , -4°C
Humidity: 60%
Barometer: 29.94 inHg , 1013.9 hPa
Clouds: Overcast
Visibility: 10 miles , 16 km
Cloud details: Mostly Cloudy 4500 ft
Overcast 6000 ft
2021/03/05 02:56 KDOV 050256Z AUTO 32013KT 10SM BKN045 OVC060 03/M04 A2994 RMK AO2 SLP143 T00341043 $
 
KMDT - Harrisburg Intl Airport, Middletown, Pennsylvania
Distance from station: N 67mi, 107km
Updated: Thu, 04-Mar-2021 9:56pm EST
Clear
Clear
 Wind from NW
Wind: NW 20 mph , 31 km/h, Gust: 28 mph , 44 km/h
Temperature: 30°F , -1°C
Wind Chill: 17°F , -8°C
Dew Point: 10°F , -12°C
Humidity: 43%
Barometer: 30.01 inHg , 1016.3 hPa
Clouds: Clear
Visibility: 10 miles , 16 km
2021/03/05 02:56 KMDT 050256Z 31017G24KT 10SM CLR M01/M12 A3001 RMK AO2 SLP166 T10061122 51013
KMQS - Chester Co Carlson Airport, Coatesville, Pennsylvania
Distance from station: NE 68mi, 109km
Updated: Thu, 04-Mar-2021 9:55pm EST
Clear
Clear
 Wind from NW
Wind: NW 14 mph , 22 km/h, Gust: 26 mph , 43 km/h
Temperature: 30°F , -1°C
Wind Chill: 19°F , -7°C
Dew Point: 14°F , -10°C
Humidity: 51%
Barometer: 29.96 inHg , 1014.6 hPa
Clouds: Clear
Visibility: 10 miles , 16 km
2021/03/05 02:55 KMQS 050255Z AUTO 31012G23KT 10SM CLR M01/M10 A2996 RMK AO2
KCXY - Capital City Airport, Harrisburg, Pennsylvania
Distance from station: N 68mi, 110km
Updated: Thu, 04-Mar-2021 9:56pm EST
Clear
Clear
 Wind from NW
Wind: NW 17 mph , 28 km/h, Gust: 28 mph , 44 km/h
Temperature: 32°F , 0°C
Wind Chill: 21°F , -6°C
Dew Point: 10°F , -12°C
Humidity: 40%
Barometer: 30.01 inHg , 1016.3 hPa
Clouds: Clear
Visibility: 10 miles , 16 km
2021/03/05 02:56 KCXY 050256Z AUTO 32015G24KT 10SM CLR 00/M12 A3001 RMK AO2 SLP168 T00001122 51009
 
KNHK - Patuxent River NAS, Maryland
Distance from station: SE 69mi, 111km
Updated: Thu, 04-Mar-2021 9:52pm EST
Clear
Clear
 Wind from NNW
Wind: NNW 29 mph , 46 km/h, Gust: 35 mph , 56 km/h
Temperature: 41°F , 5°C
Wind Chill: 30°F , -1°C
Dew Point: 21°F , -6°C
Humidity: 45%
Barometer: 29.97 inHg , 1014.9 hPa
Clouds: Clear
Visibility: 10 miles , 16 km
2021/03/05 02:52 KNHK 050252Z 33025G30KT 10SM CLR 05/M06 A2997 RMK AO2 PK WND 33032/0217 SLP150 T00501061 51016 $
KMRB - Eastern WV Reg Airport/Shepherd Field, Martinsburg, West Virginia
Distance from station: W 70mi, 112km
Updated: Thu, 04-Mar-2021 9:53pm EST
Mostly Cloudy
Mostly Cloudy
 Wind from NNW
Wind: NNW 17 mph , 28 km/h, Gust: 29 mph , 46 km/h
Temperature: 30°F , -1°C
Wind Chill: 18°F , -8°C
Dew Point: 12°F , -11°C
Humidity: 47%
Barometer: 30.05 inHg , 1017.6 hPa
Clouds: Mostly Cloudy
Visibility: 10 miles , 16 km
Cloud details: Mostly Cloudy 4500 ft
2021/03/05 02:53 KMRB 050253Z 34015G25KT 10SM BKN045 M01/M11 A3005 RMK AO2 SLP180 T10061106 51012
KHWY - Warrenton-Fauquier Airport, Warrenton, Virginia
Distance from station: SW 71mi, 114km
Updated: Thu, 04-Mar-2021 9:55pm EST
Mostly Cloudy
Mostly Cloudy
 Wind from NNE
Wind: NNE 7 mph , 11 km/h
Temperature: 39°F , 4°C
Wind Chill: 34°F , 1°C
Dew Point: 18°F , -8°C
Humidity: 42%
Barometer: 30.03 inHg , 1016.9 hPa
Clouds: Mostly Cloudy
Visibility: 10 miles , 16 km
Cloud details: Mostly Cloudy 5000 ft
2021/03/05 02:55 KHWY 050255Z AUTO 02006KT 10SM BKN050 04/M08 A3003 RMK AO2 T00351082
 
KRMN - Stafford Regional Airport, Virginia
Distance from station: SW 71mi, 114km
Updated: Thu, 04-Mar-2021 9:55pm EST
Clear
Clear
 Wind from NNW
Wind: NNW 18 mph , 30 km/h, Gust: 29 mph , 46 km/h
Temperature: 39°F , 4°C
Wind Chill: 30°F , -1°C
Dew Point: 10°F , -12°C
Humidity: 30%
Barometer: 30.06 inHg , 1017.9 hPa
Clouds: Clear
Visibility: 10 miles , 16 km
2021/03/05 02:55 KRMN 050255Z AUTO 34016G25KT 10SM CLR 04/M12 A3006 RMK AO2 T00361117
KNUI - Webster Naval, St Inigoes, Maryland
Distance from station: S 76mi, 123km
Updated: Thu, 04-Mar-2021 9:53pm EST
Clear
Clear
 Wind from NW
Wind: NW 9 mph , 15 km/h, Gust: 25 mph , 41 km/h
Temperature: 45°F , 7°C
Wind Chill: 40°F , 4°C
Dew Point: 19°F , -7°C
Humidity: 37%
Barometer: 29.97 inHg , 1014.9 hPa
Clouds: Clear
Visibility: 10 miles , 16 km
2021/03/05 02:53 KNUI 050253Z AUTO 32008G22KT 280V010 10SM CLR 07/M07 A2997 RMK AO2 SLP146 T00671072 51016
KEZF - Fredericksburg/Shan, Virginia
Distance from station: SSW 78mi, 126km
Updated: Thu, 04-Mar-2021 9:55pm EST
Clear
Clear
 Wind from N
Wind: N 12 mph , 19 km/h, Gust: 21 mph , 33 km/h
Temperature: 41°F , 5°C
Wind Chill: 34°F , 1°C
Dew Point: 19°F , -7°C
Humidity: 42%
Barometer: 30.02 inHg , 1016.6 hPa
Clouds: Clear
Visibility: 10 miles , 16 km
2021/03/05 02:55 KEZF 050255Z AUTO 36010G18KT 10SM CLR 05/M07 A3002 RMK AO2 T00471070
 
KOKV - Winchester Regional Airport, Virginia
Distance from station: W 78mi, 126km
Updated: Thu, 04-Mar-2021 9:55pm EST
Mostly Cloudy
Mostly Cloudy
 Wind from NW
Wind: NW 15 mph , 24 km/h, Gust: 22 mph , 35 km/h
Temperature: 32°F , 0°C
Wind Chill: 22°F , -6°C
Dew Point: 18°F , -8°C
Humidity: 55%
Barometer: 30.04 inHg , 1017.3 hPa
Clouds: Mostly Cloudy
Visibility: 10 miles , 16 km
Cloud details: Mostly Cloudy 4400 ft
2021/03/05 02:55 KOKV 050255Z AUTO 32013G19KT 10SM BKN044 00/M08 A3004 RMK AO2
KCJR - Culpeper Regional Airport, Virginia
Distance from station: SW 79mi, 128km
Updated: Thu, 04-Mar-2021 9:55pm EST
Clear
Clear
 Wind from N
Wind: N 12 mph , 19 km/h, Gust: 24 mph , 39 km/h
Temperature: 39°F , 4°C
Wind Chill: 32°F , 0°C
Dew Point: 18°F , -8°C
Humidity: 42%
Barometer: 30.04 inHg , 1017.3 hPa
Clouds: Clear
Visibility: 10 miles , 16 km
2021/03/05 02:55 KCJR 050255Z AUTO 35010G21KT 10SM CLR 04/M08 A3004 RMK AO2 T00371077
canadians